sensor_id;sensor_type;location;lat;lon;timestamp;temperature;humidity
10431;DHT22;5262;59.958;17.726;2023-01-15T00:01:45;1.60;99.90
10431;DHT22;5262;59.958;17.726;2023-01-15T00:04:11;1.70;99.90
10431;DHT22;5262;59.958;17.726;2023-01-15T00:06:39;1.70;99.90
10431;DHT22;5262;59.958;17.726;2023-01-15T00:09:06;1.70;99.90
10431;DHT22;5262;59.958;17.726;2023-01-15T00:11:32;1.80;99.90
10431;DHT22;5262;59.958;17.726;2023-01-15T00:13:58;1.80;99.90
10431;DHT22;5262;59.958;17.726;2023-01-15T00:16:25;1.80;99.90
10431;DHT22;5262;59.958;17.726;2023-01-15T00:18:53;1.90;99.90
10431;DHT22;5262;59.958;17.726;2023-01-15T00:21:20;1.90;99.90
10431;DHT22;5262;59.958;17.726;2023-01-15T00:23:47;2.00;99.90
10431;DHT22;5262;59.958;17.726;2023-01-15T00:26:32;2.00;99.90
10431;DHT22;5262;59.958;17.726;2023-01-15T00:29:17;2.00;99.90
10431;DHT22;5262;59.958;17.726;2023-01-15T00:31:56;2.00;99.90
10431;DHT22;5262;59.958;17.726;2023-01-15T00:34:23;2.00;99.90
10431;DHT22;5262;59.958;17.726;2023-01-15T00:36:49;2.00;99.90
10431;DHT22;5262;59.958;17.726;2023-01-15T00:39:14;2.10;99.90
10431;DHT22;5262;59.958;17.726;2023-01-15T00:41:40;2.00;99.90
10431;DHT22;5262;59.958;17.726;2023-01-15T00:44:06;2.10;99.90
10431;DHT22;5262;59.958;17.726;2023-01-15T00:46:31;2.10;99.90
10431;DHT22;5262;59.958;17.726;2023-01-15T00:48:57;2.10;99.90
10431;DHT22;5262;59.958;17.726;2023-01-15T00:51:23;2.10;99.90
10431;DHT22;5262;59.958;17.726;2023-01-15T00:53:48;2.10;99.90
10431;DHT22;5262;59.958;17.726;2023-01-15T00:56:14;2.10;99.90
10431;DHT22;5262;59.958;17.726;2023-01-15T00:58:39;2.10;99.90
10431;DHT22;5262;59.958;17.726;2023-01-15T01:01:05;2.10;99.90
10431;DHT22;5262;59.958;17.726;2023-01-15T01:03:31;2.10;99.90
10431;DHT22;5262;59.958;17.726;2023-01-15T01:06:02;2.10;99.90
10431;DHT22;5262;59.958;17.726;2023-01-15T01:08:28;2.20;99.90
10431;DHT22;5262;59.958;17.726;2023-01-15T01:11:04;2.10;99.90
10431;DHT22;5262;59.958;17.726;2023-01-15T01:13:31;2.20;99.90
10431;DHT22;5262;59.958;17.726;2023-01-15T01:15:57;2.20;99.90
10431;DHT22;5262;59.958;17.726;2023-01-15T01:18:22;2.20;99.90
10431;DHT22;5262;59.958;17.726;2023-01-15T01:20:48;2.20;99.90
10431;DHT22;5262;59.958;17.726;2023-01-15T01:23:13;2.30;99.90
10431;DHT22;5262;59.958;17.726;2023-01-15T01:25:39;2.30;99.90
10431;DHT22;5262;59.958;17.726;2023-01-15T01:28:05;2.30;99.90
10431;DHT22;5262;59.958;17.726;2023-01-15T01:30:30;2.40;99.90
10431;DHT22;5262;59.958;17.726;2023-01-15T01:32:56;2.40;99.90
10431;DHT22;5262;59.958;17.726;2023-01-15T01:35:21;2.50;99.90
10431;DHT22;5262;59.958;17.726;2023-01-15T01:37:50;2.50;99.90
10431;DHT22;5262;59.958;17.726;2023-01-15T01:40:17;2.50;99.90
10431;DHT22;5262;59.958;17.726;2023-01-15T01:42:43;2.50;99.90
10431;DHT22;5262;59.958;17.726;2023-01-15T01:45:27;2.50;99.90
10431;DHT22;5262;59.958;17.726;2023-01-15T01:48:01;2.60;99.90
10431;DHT22;5262;59.958;17.726;2023-01-15T01:50:29;2.60;99.90
10431;DHT22;5262;59.958;17.726;2023-01-15T01:53:02;2.60;99.90
10431;DHT22;5262;59.958;17.726;2023-01-15T01:55:29;2.70;99.90
10431;DHT22;5262;59.958;17.726;2023-01-15T01:58:00;2.70;99.90
10431;DHT22;5262;59.958;17.726;2023-01-15T02:00:27;2.70;99.90
10431;DHT22;5262;59.958;17.726;2023-01-15T02:02:54;2.70;99.90
10431;DHT22;5262;59.958;17.726;2023-01-15T02:05:41;2.70;99.90
10431;DHT22;5262;59.958;17.726;2023-01-15T02:08:09;2.80;99.90
10431;DHT22;5262;59.958;17.726;2023-01-15T02:10:34;2.80;99.90
10431;DHT22;5262;59.958;17.726;2023-01-15T02:13:06;2.80;99.90
10431;DHT22;5262;59.958;17.726;2023-01-15T02:15:39;2.90;99.90
10431;DHT22;5262;59.958;17.726;2023-01-15T02:18:30;2.90;99.90
10431;DHT22;5262;59.958;17.726;2023-01-15T02:21:00;2.90;99.90
10431;DHT22;5262;59.958;17.726;2023-01-15T02:29:44;2.90;99.90
10431;DHT22;5262;59.958;17.726;2023-01-15T02:32:16;2.90;99.90
10431;DHT22;5262;59.958;17.726;2023-01-15T02:34:49;2.90;99.90
10431;DHT22;5262;59.958;17.726;2023-01-15T02:37:22;2.90;99.90
10431;DHT22;5262;59.958;17.726;2023-01-15T02:39:49;2.90;99.90
10431;DHT22;5262;59.958;17.726;2023-01-15T02:42:16;2.90;99.90
10431;DHT22;5262;59.958;17.726;2023-01-15T02:44:48;2.80;99.90
10431;DHT22;5262;59.958;17.726;2023-01-15T02:47:17;2.80;99.90
10431;DHT22;5262;59.958;17.726;2023-01-15T02:49:44;2.80;99.90
10431;DHT22;5262;59.958;17.726;2023-01-15T02:52:36;2.80;99.90
10431;DHT22;5262;59.958;17.726;2023-01-15T02:55:07;2.70;99.90
10431;DHT22;5262;59.958;17.726;2023-01-15T02:57:37;2.70;99.90
10431;DHT22;5262;59.958;17.726;2023-01-15T03:00:08;2.70;99.90
10431;DHT22;5262;59.958;17.726;2023-01-15T03:02:39;2.60;99.90
10431;DHT22;5262;59.958;17.726;2023-01-15T03:05:29;2.60;99.90
10431;DHT22;5262;59.958;17.726;2023-01-15T03:08:00;2.60;99.90
10431;DHT22;5262;59.958;17.726;2023-01-15T03:10:46;2.50;99.90
10431;DHT22;5262;59.958;17.726;2023-01-15T03:13:23;2.50;99.90
10431;DHT22;5262;59.958;17.726;2023-01-15T03:16:13;2.40;99.90
10431;DHT22;5262;59.958;17.726;2023-01-15T03:24:09;2.30;99.90
10431;DHT22;5262;59.958;17.726;2023-01-15T03:26:35;2.30;99.90
10431;DHT22;5262;59.958;17.726;2023-01-15T03:29:03;2.30;99.90
10431;DHT22;5262;59.958;17.726;2023-01-15T03:31:32;2.30;99.90
10431;DHT22;5262;59.958;17.726;2023-01-15T03:33:58;2.30;99.90
10431;DHT22;5262;59.958;17.726;2023-01-15T03:36:23;2.20;99.90
10431;DHT22;5262;59.958;17.726;2023-01-15T03:38:49;2.20;99.90
10431;DHT22;5262;59.958;17.726;2023-01-15T03:47:29;2.20;99.90
10431;DHT22;5262;59.958;17.726;2023-01-15T03:55:22;2.20;99.90
10431;DHT22;5262;59.958;17.726;2023-01-15T03:57:57;2.30;99.90
10431;DHT22;5262;59.958;17.726;2023-01-15T04:00:31;2.20;99.90
10431;DHT22;5262;59.958;17.726;2023-01-15T04:03:00;2.20;99.90
10431;DHT22;5262;59.958;17.726;2023-01-15T04:05:27;2.30;99.90
10431;DHT22;5262;59.958;17.726;2023-01-15T04:07:53;2.20;99.90
10431;DHT22;5262;59.958;17.726;2023-01-15T04:10:20;2.20;99.90
10431;DHT22;5262;59.958;17.726;2023-01-15T04:12:46;2.20;99.90
10431;DHT22;5262;59.958;17.726;2023-01-15T04:15:12;2.20;99.90
10431;DHT22;5262;59.958;17.726;2023-01-15T04:17:38;2.20;99.90
10431;DHT22;5262;59.958;17.726;2023-01-15T04:20:04;2.10;99.90
10431;DHT22;5262;59.958;17.726;2023-01-15T04:22:30;2.10;99.90
10431;DHT22;5262;59.958;17.726;2023-01-15T04:24:56;2.10;99.90
10431;DHT22;5262;59.958;17.726;2023-01-15T04:27:21;2.10;99.90
10431;DHT22;5262;59.958;17.726;2023-01-15T04:29:47;2.10;99.90
10431;DHT22;5262;59.958;17.726;2023-01-15T04:32:13;2.10;99.90
10431;DHT22;5262;59.958;17.726;2023-01-15T04:34:39;2.00;99.90
10431;DHT22;5262;59.958;17.726;2023-01-15T04:37:05;2.00;99.90
10431;DHT22;5262;59.958;17.726;2023-01-15T04:39:31;2.00;99.90
10431;DHT22;5262;59.958;17.726;2023-01-15T04:41:57;2.00;99.90
10431;DHT22;5262;59.958;17.726;2023-01-15T04:44:41;2.00;99.90
10431;DHT22;5262;59.958;17.726;2023-01-15T04:47:07;1.90;99.90
10431;DHT22;5262;59.958;17.726;2023-01-15T04:49:33;1.90;99.90
10431;DHT22;5262;59.958;17.726;2023-01-15T04:51:59;1.90;99.90
10431;DHT22;5262;59.958;17.726;2023-01-15T04:54:25;1.90;99.90
10431;DHT22;5262;59.958;17.726;2023-01-15T04:56:53;1.80;99.90
10431;DHT22;5262;59.958;17.726;2023-01-15T04:59:22;1.80;99.90
10431;DHT22;5262;59.958;17.726;2023-01-15T05:01:48;1.80;99.90
10431;DHT22;5262;59.958;17.726;2023-01-15T05:04:14;1.80;99.90
10431;DHT22;5262;59.958;17.726;2023-01-15T05:06:40;1.80;99.90
10431;DHT22;5262;59.958;17.726;2023-01-15T05:09:06;1.80;99.90
10431;DHT22;5262;59.958;17.726;2023-01-15T05:11:35;1.80;99.90
10431;DHT22;5262;59.958;17.726;2023-01-15T05:14:01;1.80;99.90
10431;DHT22;5262;59.958;17.726;2023-01-15T05:16:27;1.80;99.90
10431;DHT22;5262;59.958;17.726;2023-01-15T05:18:57;1.70;99.90
10431;DHT22;5262;59.958;17.726;2023-01-15T05:21:26;1.70;99.90
10431;DHT22;5262;59.958;17.726;2023-01-15T05:23:53;1.70;99.90
10431;DHT22;5262;59.958;17.726;2023-01-15T05:26:20;1.60;99.90
10431;DHT22;5262;59.958;17.726;2023-01-15T05:28:46;1.60;99.90
10431;DHT22;5262;59.958;17.726;2023-01-15T05:31:14;1.60;99.90
10431;DHT22;5262;59.958;17.726;2023-01-15T05:33:40;1.50;99.90
10431;DHT22;5262;59.958;17.726;2023-01-15T05:36:09;1.50;99.90
10431;DHT22;5262;59.958;17.726;2023-01-15T05:38:36;1.50;99.90
10431;DHT22;5262;59.958;17.726;2023-01-15T05:41:07;1.50;99.90
10431;DHT22;5262;59.958;17.726;2023-01-15T05:43:53;1.40;99.90
10431;DHT22;5262;59.958;17.726;2023-01-15T05:46:19;1.40;99.90
10431;DHT22;5262;59.958;17.726;2023-01-15T05:48:45;1.40;99.90
10431;DHT22;5262;59.958;17.726;2023-01-15T05:51:11;1.40;99.90
10431;DHT22;5262;59.958;17.726;2023-01-15T05:53:36;1.40;99.90
10431;DHT22;5262;59.958;17.726;2023-01-15T05:56:06;1.40;99.90
10431;DHT22;5262;59.958;17.726;2023-01-15T05:58:32;1.40;99.90
10431;DHT22;5262;59.958;17.726;2023-01-15T06:00:57;1.40;99.90
10431;DHT22;5262;59.958;17.726;2023-01-15T06:03:24;1.50;99.90
10431;DHT22;5262;59.958;17.726;2023-01-15T06:05:54;1.50;99.90
10431;DHT22;5262;59.958;17.726;2023-01-15T06:08:21;1.50;99.90
10431;DHT22;5262;59.958;17.726;2023-01-15T06:10:48;1.60;99.90
10431;DHT22;5262;59.958;17.726;2023-01-15T06:13:14;1.70;99.90
10431;DHT22;5262;59.958;17.726;2023-01-15T06:15:41;1.70;99.90
10431;DHT22;5262;59.958;17.726;2023-01-15T06:18:07;1.80;99.90
10431;DHT22;5262;59.958;17.726;2023-01-15T06:20:40;1.80;99.90
10431;DHT22;5262;59.958;17.726;2023-01-15T06:23:06;1.90;99.90
10431;DHT22;5262;59.958;17.726;2023-01-15T06:25:35;1.90;99.90
10431;DHT22;5262;59.958;17.726;2023-01-15T06:28:05;2.00;99.90
10431;DHT22;5262;59.958;17.726;2023-01-15T06:30:32;2.10;99.90
10431;DHT22;5262;59.958;17.726;2023-01-15T06:32:58;2.10;99.90
10431;DHT22;5262;59.958;17.726;2023-01-15T06:35:24;2.10;99.90
10431;DHT22;5262;59.958;17.726;2023-01-15T06:37:50;2.30;99.90
10431;DHT22;5262;59.958;17.726;2023-01-15T06:40:16;2.30;99.90
10431;DHT22;5262;59.958;17.726;2023-01-15T06:42:42;2.30;99.90
10431;DHT22;5262;59.958;17.726;2023-01-15T06:45:26;2.40;99.90
10431;DHT22;5262;59.958;17.726;2023-01-15T06:48:12;2.40;99.90
10431;DHT22;5262;59.958;17.726;2023-01-15T06:50:37;2.50;99.90
10431;DHT22;5262;59.958;17.726;2023-01-15T06:53:03;2.40;99.90
10431;DHT22;5262;59.958;17.726;2023-01-15T06:55:28;2.50;99.90
10431;DHT22;5262;59.958;17.726;2023-01-15T06:57:54;2.50;99.90
10431;DHT22;5262;59.958;17.726;2023-01-15T07:00:20;2.40;99.90
10431;DHT22;5262;59.958;17.726;2023-01-15T07:02:46;2.40;99.90
10431;DHT22;5262;59.958;17.726;2023-01-15T07:05:11;2.50;99.90
10431;DHT22;5262;59.958;17.726;2023-01-15T07:07:40;2.40;99.90
10431;DHT22;5262;59.958;17.726;2023-01-15T07:10:06;2.40;99.90
10431;DHT22;5262;59.958;17.726;2023-01-15T07:12:33;2.40;99.90
10431;DHT22;5262;59.958;17.726;2023-01-15T07:14:59;2.40;99.90
10431;DHT22;5262;59.958;17.726;2023-01-15T07:17:25;2.40;99.90
10431;DHT22;5262;59.958;17.726;2023-01-15T07:19:50;2.40;99.90
10431;DHT22;5262;59.958;17.726;2023-01-15T07:22:16;2.40;99.90
10431;DHT22;5262;59.958;17.726;2023-01-15T07:24:41;2.40;99.90
10431;DHT22;5262;59.958;17.726;2023-01-15T07:27:07;2.40;99.90
10431;DHT22;5262;59.958;17.726;2023-01-15T07:29:33;2.40;99.90
10431;DHT22;5262;59.958;17.726;2023-01-15T07:31:58;2.30;99.90
10431;DHT22;5262;59.958;17.726;2023-01-15T07:34:24;2.30;99.90
10431;DHT22;5262;59.958;17.726;2023-01-15T07:36:50;2.30;99.90
10431;DHT22;5262;59.958;17.726;2023-01-15T07:39:16;2.30;99.90
10431;DHT22;5262;59.958;17.726;2023-01-15T07:41:42;2.30;99.90
10431;DHT22;5262;59.958;17.726;2023-01-15T07:44:26;2.30;99.90
10431;DHT22;5262;59.958;17.726;2023-01-15T07:47:18;2.40;99.90
10431;DHT22;5262;59.958;17.726;2023-01-15T07:50:04;2.40;99.90
10431;DHT22;5262;59.958;17.726;2023-01-15T07:52:30;2.50;99.90
10431;DHT22;5262;59.958;17.726;2023-01-15T07:54:55;2.50;99.90
10431;DHT22;5262;59.958;17.726;2023-01-15T07:57:21;2.60;99.90
10431;DHT22;5262;59.958;17.726;2023-01-15T07:59:48;2.60;99.90
10431;DHT22;5262;59.958;17.726;2023-01-15T08:02:14;2.70;99.90
10431;DHT22;5262;59.958;17.726;2023-01-15T08:04:40;2.70;99.90
10431;DHT22;5262;59.958;17.726;2023-01-15T08:07:06;2.70;99.90
10431;DHT22;5262;59.958;17.726;2023-01-15T08:09:32;2.80;99.90
10431;DHT22;5262;59.958;17.726;2023-01-15T08:11:59;2.70;99.90
10431;DHT22;5262;59.958;17.726;2023-01-15T08:14:43;2.70;99.90
10431;DHT22;5262;59.958;17.726;2023-01-15T08:17:28;2.70;99.90
10431;DHT22;5262;59.958;17.726;2023-01-15T08:19:54;2.70;99.90
10431;DHT22;5262;59.958;17.726;2023-01-15T08:22:19;2.70;99.90
10431;DHT22;5262;59.958;17.726;2023-01-15T08:24:45;2.70;99.90
10431;DHT22;5262;59.958;17.726;2023-01-15T08:27:11;2.70;99.90
10431;DHT22;5262;59.958;17.726;2023-01-15T08:29:38;2.70;99.90
10431;DHT22;5262;59.958;17.726;2023-01-15T08:32:04;2.70;99.90
10431;DHT22;5262;59.958;17.726;2023-01-15T08:34:29;2.80;99.90
10431;DHT22;5262;59.958;17.726;2023-01-15T08:36:55;2.70;99.90
10431;DHT22;5262;59.958;17.726;2023-01-15T08:39:27;2.70;99.90
10431;DHT22;5262;59.958;17.726;2023-01-15T08:41:54;2.70;99.90
10431;DHT22;5262;59.958;17.726;2023-01-15T08:44:20;2.70;99.90
10431;DHT22;5262;59.958;17.726;2023-01-15T08:46:49;2.70;99.90
10431;DHT22;5262;59.958;17.726;2023-01-15T08:49:15;2.70;99.90
10431;DHT22;5262;59.958;17.726;2023-01-15T08:51:42;2.80;99.90
10431;DHT22;5262;59.958;17.726;2023-01-15T08:54:08;2.80;99.90
10431;DHT22;5262;59.958;17.726;2023-01-15T08:56:33;2.80;99.90
10431;DHT22;5262;59.958;17.726;2023-01-15T08:59:03;2.80;99.90
10431;DHT22;5262;59.958;17.726;2023-01-15T09:01:29;2.80;99.90
10431;DHT22;5262;59.958;17.726;2023-01-15T09:03:55;2.80;99.90
10431;DHT22;5262;59.958;17.726;2023-01-15T09:06:21;2.80;99.90
10431;DHT22;5262;59.958;17.726;2023-01-15T09:08:46;2.80;99.90
10431;DHT22;5262;59.958;17.726;2023-01-15T09:11:12;2.80;99.90
10431;DHT22;5262;59.958;17.726;2023-01-15T09:13:38;2.80;99.90
10431;DHT22;5262;59.958;17.726;2023-01-15T09:16:05;2.80;99.90
10431;DHT22;5262;59.958;17.726;2023-01-15T09:18:31;2.80;99.90
10431;DHT22;5262;59.958;17.726;2023-01-15T09:20:57;2.80;99.90
10431;DHT22;5262;59.958;17.726;2023-01-15T09:23:24;2.80;99.90
10431;DHT22;5262;59.958;17.726;2023-01-15T09:25:57;2.90;99.90
10431;DHT22;5262;59.958;17.726;2023-01-15T09:28:23;2.90;99.90
10431;DHT22;5262;59.958;17.726;2023-01-15T09:30:49;2.90;99.90
10431;DHT22;5262;59.958;17.726;2023-01-15T09:33:15;2.90;99.90
10431;DHT22;5262;59.958;17.726;2023-01-15T09:35:44;3.00;99.90
10431;DHT22;5262;59.958;17.726;2023-01-15T09:38:12;3.00;99.90
10431;DHT22;5262;59.958;17.726;2023-01-15T09:40:54;3.00;99.90
10431;DHT22;5262;59.958;17.726;2023-01-15T09:43:43;3.00;99.90
10431;DHT22;5262;59.958;17.726;2023-01-15T09:46:26;3.00;99.90
10431;DHT22;5262;59.958;17.726;2023-01-15T09:51:43;3.00;99.90
10431;DHT22;5262;59.958;17.726;2023-01-15T09:56:54;3.10;99.90
10431;DHT22;5262;59.958;17.726;2023-01-15T09:59:33;3.20;99.90
10431;DHT22;5262;59.958;17.726;2023-01-15T10:02:03;3.20;99.90
10431;DHT22;5262;59.958;17.726;2023-01-15T10:04:45;3.10;99.90
10431;DHT22;5262;59.958;17.726;2023-01-15T10:07:32;3.10;99.90
10431;DHT22;5262;59.958;17.726;2023-01-15T10:10:10;3.10;99.90
10431;DHT22;5262;59.958;17.726;2023-01-15T10:12:38;3.20;99.90
10431;DHT22;5262;59.958;17.726;2023-01-15T10:15:23;3.30;99.90
10431;DHT22;5262;59.958;17.726;2023-01-15T10:17:57;3.40;99.90
10431;DHT22;5262;59.958;17.726;2023-01-15T10:26:35;3.50;99.90
10431;DHT22;5262;59.958;17.726;2023-01-15T10:47:53;3.40;99.90
10431;DHT22;5262;59.958;17.726;2023-01-15T10:50:24;3.30;99.90
10431;DHT22;5262;59.958;17.726;2023-01-15T10:55:45;3.30;99.90
10431;DHT22;5262;59.958;17.726;2023-01-15T10:58:14;3.30;99.90
10431;DHT22;5262;59.958;17.726;2023-01-15T11:00:48;3.30;99.90
10431;DHT22;5262;59.958;17.726;2023-01-15T11:03:19;3.30;99.90
10431;DHT22;5262;59.958;17.726;2023-01-15T11:05:46;3.40;99.90
10431;DHT22;5262;59.958;17.726;2023-01-15T11:08:25;3.40;99.90
10431;DHT22;5262;59.958;17.726;2023-01-15T11:10:57;3.50;99.90
10431;DHT22;5262;59.958;17.726;2023-01-15T11:13:29;3.50;99.90
10431;DHT22;5262;59.958;17.726;2023-01-15T11:16:16;3.60;99.90
10431;DHT22;5262;59.958;17.726;2023-01-15T11:19:02;3.60;99.90
10431;DHT22;5262;59.958;17.726;2023-01-15T11:21:47;3.50;99.90
10431;DHT22;5262;59.958;17.726;2023-01-15T11:24:15;3.40;99.90
10431;DHT22;5262;59.958;17.726;2023-01-15T11:26:47;3.40;99.90
10431;DHT22;5262;59.958;17.726;2023-01-15T11:29:20;3.40;99.90
10431;DHT22;5262;59.958;17.726;2023-01-15T11:31:49;3.40;99.90
10431;DHT22;5262;59.958;17.726;2023-01-15T11:34:19;3.40;99.90
10431;DHT22;5262;59.958;17.726;2023-01-15T11:36:46;3.30;99.90
10431;DHT22;5262;59.958;17.726;2023-01-15T11:39:26;3.30;99.90
10431;DHT22;5262;59.958;17.726;2023-01-15T11:42:11;3.50;99.90
10431;DHT22;5262;59.958;17.726;2023-01-15T11:44:58;3.70;99.90
10431;DHT22;5262;59.958;17.726;2023-01-15T11:47:52;3.60;99.90
10431;DHT22;5262;59.958;17.726;2023-01-15T11:50:48;3.50;99.90
10431;DHT22;5262;59.958;17.726;2023-01-15T11:53:19;3.50;99.90
10431;DHT22;5262;59.958;17.726;2023-01-15T11:55:58;3.60;99.90
10431;DHT22;5262;59.958;17.726;2023-01-15T11:58:27;3.80;99.90
10431;DHT22;5262;59.958;17.726;2023-01-15T12:00:53;4.00;99.90
10431;DHT22;5262;59.958;17.726;2023-01-15T12:03:25;4.10;99.90
10431;DHT22;5262;59.958;17.726;2023-01-15T12:06:00;3.90;99.90
10431;DHT22;5262;59.958;17.726;2023-01-15T12:14:17;3.60;99.90
10431;DHT22;5262;59.958;17.726;2023-01-15T12:22:24;3.50;99.90
10431;DHT22;5262;59.958;17.726;2023-01-15T12:30:50;3.60;99.90
10431;DHT22;5262;59.958;17.726;2023-01-15T12:33:40;3.50;99.90
10431;DHT22;5262;59.958;17.726;2023-01-15T12:36:09;3.60;99.90
10431;DHT22;5262;59.958;17.726;2023-01-15T12:38:45;3.60;99.90
10431;DHT22;5262;59.958;17.726;2023-01-15T12:41:15;3.50;99.90
10431;DHT22;5262;59.958;17.726;2023-01-15T12:43:46;3.50;99.90
10431;DHT22;5262;59.958;17.726;2023-01-15T12:46:43;3.60;99.90
10431;DHT22;5262;59.958;17.726;2023-01-15T12:49:29;3.70;99.90
10431;DHT22;5262;59.958;17.726;2023-01-15T12:52:08;3.70;99.90
10431;DHT22;5262;59.958;17.726;2023-01-15T12:54:49;3.70;99.90
10431;DHT22;5262;59.958;17.726;2023-01-15T12:57:20;3.60;99.90
10431;DHT22;5262;59.958;17.726;2023-01-15T12:59:53;3.60;99.90
10431;DHT22;5262;59.958;17.726;2023-01-15T13:05:03;3.60;99.90
10431;DHT22;5262;59.958;17.726;2023-01-15T13:07:40;3.60;99.90
10431;DHT22;5262;59.958;17.726;2023-01-15T13:10:17;3.60;99.90
10431;DHT22;5262;59.958;17.726;2023-01-15T13:12:43;3.50;99.90
10431;DHT22;5262;59.958;17.726;2023-01-15T13:15:14;3.50;99.90
10431;DHT22;5262;59.958;17.726;2023-01-15T13:18:14;3.50;99.90
10431;DHT22;5262;59.958;17.726;2023-01-15T13:20:50;3.50;99.90
10431;DHT22;5262;59.958;17.726;2023-01-15T13:34:07;3.40;99.90
10431;DHT22;5262;59.958;17.726;2023-01-15T13:36:44;3.40;99.90
10431;DHT22;5262;59.958;17.726;2023-01-15T13:39:25;3.40;99.90
10431;DHT22;5262;59.958;17.726;2023-01-15T13:42:02;3.40;99.90
10431;DHT22;5262;59.958;17.726;2023-01-15T13:44:50;3.30;99.90
10431;DHT22;5262;59.958;17.726;2023-01-15T13:47:22;3.40;99.90
10431;DHT22;5262;59.958;17.726;2023-01-15T13:49:54;3.40;99.90
10431;DHT22;5262;59.958;17.726;2023-01-15T13:52:34;3.40;99.90
10431;DHT22;5262;59.958;17.726;2023-01-15T13:55:08;3.40;99.90
10431;DHT22;5262;59.958;17.726;2023-01-15T13:57:39;3.40;99.90
10431;DHT22;5262;59.958;17.726;2023-01-15T14:00:30;3.40;99.90
10431;DHT22;5262;59.958;17.726;2023-01-15T14:02:58;3.40;99.90
10431;DHT22;5262;59.958;17.726;2023-01-15T14:05:32;3.30;99.90
10431;DHT22;5262;59.958;17.726;2023-01-15T14:08:00;3.30;99.90
10431;DHT22;5262;59.958;17.726;2023-01-15T14:10:34;3.30;99.90
10431;DHT22;5262;59.958;17.726;2023-01-15T14:13:17;3.20;99.90
10431;DHT22;5262;59.958;17.726;2023-01-15T14:16:16;3.20;99.90
10431;DHT22;5262;59.958;17.726;2023-01-15T14:32:37;3.10;99.90
10431;DHT22;5262;59.958;17.726;2023-01-15T14:35:02;3.00;99.90
10431;DHT22;5262;59.958;17.726;2023-01-15T14:40:05;2.90;99.90
10431;DHT22;5262;59.958;17.726;2023-01-15T14:42:36;2.90;99.90
10431;DHT22;5262;59.958;17.726;2023-01-15T14:45:28;3.00;99.90
10431;DHT22;5262;59.958;17.726;2023-01-15T14:50:44;3.00;99.90
10431;DHT22;5262;59.958;17.726;2023-01-15T15:01:49;3.10;99.90
10431;DHT22;5262;59.958;17.726;2023-01-15T15:06:53;3.10;99.90
10431;DHT22;5262;59.958;17.726;2023-01-15T15:09:39;3.10;99.90
10431;DHT22;5262;59.958;17.726;2023-01-15T15:12:21;3.10;99.90
10431;DHT22;5262;59.958;17.726;2023-01-15T15:14:59;3.00;99.90
10431;DHT22;5262;59.958;17.726;2023-01-15T15:23:02;3.10;99.90
10431;DHT22;5262;59.958;17.726;2023-01-15T15:25:32;3.10;99.90
10431;DHT22;5262;59.958;17.726;2023-01-15T15:28:04;3.10;99.90
10431;DHT22;5262;59.958;17.726;2023-01-15T15:30:32;3.00;99.90
10431;DHT22;5262;59.958;17.726;2023-01-15T15:32:59;2.90;99.90
10431;DHT22;5262;59.958;17.726;2023-01-15T15:35:29;2.90;99.90
10431;DHT22;5262;59.958;17.726;2023-01-15T15:38:01;2.90;99.90
10431;DHT22;5262;59.958;17.726;2023-01-15T15:40:33;2.80;99.90
10431;DHT22;5262;59.958;17.726;2023-01-15T15:43:16;2.80;99.90
10431;DHT22;5262;59.958;17.726;2023-01-15T15:46:23;2.80;99.90
10431;DHT22;5262;59.958;17.726;2023-01-15T15:49:08;2.80;99.90
10431;DHT22;5262;59.958;17.726;2023-01-15T15:51:53;2.70;99.90
10431;DHT22;5262;59.958;17.726;2023-01-15T15:59:32;2.70;99.90
10431;DHT22;5262;59.958;17.726;2023-01-15T16:02:18;2.70;99.90
10431;DHT22;5262;59.958;17.726;2023-01-15T16:04:52;2.60;99.90
10431;DHT22;5262;59.958;17.726;2023-01-15T16:07:29;2.70;99.90
10431;DHT22;5262;59.958;17.726;2023-01-15T16:10:15;2.70;99.90
10431;DHT22;5262;59.958;17.726;2023-01-15T16:12:52;2.70;99.90
10431;DHT22;5262;59.958;17.726;2023-01-15T16:15:24;2.70;99.90
10431;DHT22;5262;59.958;17.726;2023-01-15T16:17:54;2.70;99.90
10431;DHT22;5262;59.958;17.726;2023-01-15T16:20:20;2.70;99.90
10431;DHT22;5262;59.958;17.726;2023-01-15T16:23:01;2.70;99.90
10431;DHT22;5262;59.958;17.726;2023-01-15T16:27:58;2.60;99.90
10431;DHT22;5262;59.958;17.726;2023-01-15T16:30:24;2.60;99.90
10431;DHT22;5262;59.958;17.726;2023-01-15T16:32:51;2.50;99.90
10431;DHT22;5262;59.958;17.726;2023-01-15T16:35:22;2.40;99.90
10431;DHT22;5262;59.958;17.726;2023-01-15T16:37:54;2.50;99.90
10431;DHT22;5262;59.958;17.726;2023-01-15T16:40:32;2.60;99.90
10431;DHT22;5262;59.958;17.726;2023-01-15T16:43:08;2.50;99.90
10431;DHT22;5262;59.958;17.726;2023-01-15T16:45:35;2.50;99.90
10431;DHT22;5262;59.958;17.726;2023-01-15T16:48:11;2.40;99.90
10431;DHT22;5262;59.958;17.726;2023-01-15T16:50:39;2.30;99.90
10431;DHT22;5262;59.958;17.726;2023-01-15T16:55:55;2.20;99.90
10431;DHT22;5262;59.958;17.726;2023-01-15T16:58:38;2.40;99.90
10431;DHT22;5262;59.958;17.726;2023-01-15T17:03:58;2.40;99.90
10431;DHT22;5262;59.958;17.726;2023-01-15T17:06:25;2.30;99.90
10431;DHT22;5262;59.958;17.726;2023-01-15T17:08:52;2.40;99.90
10431;DHT22;5262;59.958;17.726;2023-01-15T17:13:49;2.40;99.90
10431;DHT22;5262;59.958;17.726;2023-01-15T17:16:19;2.50;99.90
10431;DHT22;5262;59.958;17.726;2023-01-15T17:18:47;2.50;99.90
10431;DHT22;5262;59.958;17.726;2023-01-15T17:21:19;2.40;99.90
10431;DHT22;5262;59.958;17.726;2023-01-15T17:23:48;2.50;99.90
10431;DHT22;5262;59.958;17.726;2023-01-15T17:26:22;2.50;99.90
10431;DHT22;5262;59.958;17.726;2023-01-15T17:28:48;2.40;99.90
10431;DHT22;5262;59.958;17.726;2023-01-15T17:31:25;2.40;99.90
10431;DHT22;5262;59.958;17.726;2023-01-15T17:33:51;2.40;99.90
10431;DHT22;5262;59.958;17.726;2023-01-15T17:36:18;2.50;99.90
10431;DHT22;5262;59.958;17.726;2023-01-15T17:38:44;2.50;99.90
10431;DHT22;5262;59.958;17.726;2023-01-15T17:41:15;2.60;99.90
10431;DHT22;5262;59.958;17.726;2023-01-15T17:43:41;2.50;99.90
10431;DHT22;5262;59.958;17.726;2023-01-15T17:46:07;2.50;99.90
10431;DHT22;5262;59.958;17.726;2023-01-15T17:48:33;2.40;99.90
10431;DHT22;5262;59.958;17.726;2023-01-15T17:51:04;2.50;99.90
10431;DHT22;5262;59.958;17.726;2023-01-15T17:53:31;2.40;99.90
10431;DHT22;5262;59.958;17.726;2023-01-15T17:55:59;2.30;99.90
10431;DHT22;5262;59.958;17.726;2023-01-15T17:58:43;2.30;99.90
10431;DHT22;5262;59.958;17.726;2023-01-15T18:01:29;2.30;99.90
10431;DHT22;5262;59.958;17.726;2023-01-15T18:04:34;2.20;99.90
10431;DHT22;5262;59.958;17.726;2023-01-15T18:07:23;2.20;99.90
10431;DHT22;5262;59.958;17.726;2023-01-15T18:09:49;2.10;99.90
10431;DHT22;5262;59.958;17.726;2023-01-15T18:12:17;2.00;99.90
10431;DHT22;5262;59.958;17.726;2023-01-15T18:14:43;2.10;99.90
10431;DHT22;5262;59.958;17.726;2023-01-15T18:17:08;2.10;99.90
10431;DHT22;5262;59.958;17.726;2023-01-15T18:19:36;2.00;99.90
10431;DHT22;5262;59.958;17.726;2023-01-15T18:22:01;2.00;99.90
10431;DHT22;5262;59.958;17.726;2023-01-15T18:24:27;2.00;99.90
10431;DHT22;5262;59.958;17.726;2023-01-15T18:26:53;2.00;99.90
10431;DHT22;5262;59.958;17.726;2023-01-15T18:29:20;1.90;99.90